createdAt,value
2018-04-22T00:00:25.823Z,0.00
2018-04-22T00:01:04.819Z,0.00
2018-04-22T00:02:25.847Z,0.00
2018-04-22T00:03:04.819Z,0.00
2018-04-22T00:04:04.831Z,0.00
2018-04-22T00:05:25.848Z,0.00
2018-04-22T00:06:04.827Z,0.00
2018-04-22T00:07:25.808Z,0.00
2018-04-22T00:08:04.814Z,0.00
2018-04-22T00:09:04.819Z,0.00
2018-04-22T00:10:25.810Z,0.00
2018-04-22T00:11:04.768Z,0.00
2018-04-22T00:12:25.777Z,0.00
2018-04-22T00:13:04.783Z,0.00
2018-04-22T00:14:04.797Z,0.00
2018-04-22T00:15:25.799Z,0.00
2018-04-22T00:16:04.801Z,0.00
2018-04-22T00:17:25.796Z,0.00
2018-04-22T00:18:04.806Z,0.00
2018-04-22T00:19:04.811Z,0.00
2018-04-22T00:20:25.799Z,0.00
2018-04-22T00:21:04.771Z,0.00
2018-04-22T00:22:25.787Z,0.00
2018-04-22T00:23:04.777Z,0.00
2018-04-22T00:24:04.767Z,0.00
2018-04-22T00:25:25.803Z,0.00
2018-04-22T00:26:04.747Z,0.00
2018-04-22T00:27:25.717Z,0.00
2018-04-22T00:28:04.722Z,0.00
2018-04-22T00:29:04.718Z,0.00
2018-04-22T00:30:25.729Z,0.00
2018-04-22T00:31:04.718Z,0.00
2018-04-22T00:32:25.733Z,0.00
2018-04-22T00:33:04.731Z,0.00
2018-04-22T00:34:04.716Z,0.00
2018-04-22T00:35:25.737Z,0.00
2018-04-22T00:36:04.758Z,0.00
2018-04-22T00:37:25.702Z,0.00
2018-04-22T00:38:04.663Z,0.00
2018-04-22T00:39:04.708Z,0.00
2018-04-22T00:40:25.701Z,0.00
2018-04-22T00:41:04.684Z,0.00
2018-04-22T00:42:25.682Z,0.00
2018-04-22T00:43:04.713Z,0.00
2018-04-22T00:44:04.696Z,0.00
2018-04-22T00:45:25.743Z,0.00
2018-04-22T00:46:04.672Z,0.00
2018-04-22T00:47:25.673Z,0.00
2018-04-22T00:48:04.687Z,0.00
2018-04-22T00:49:04.701Z,0.00
2018-04-22T00:50:25.668Z,0.00
2018-04-22T00:51:04.670Z,0.00
2018-04-22T00:52:25.669Z,0.00
2018-04-22T00:53:04.661Z,0.00
2018-04-22T00:54:04.660Z,0.00
2018-04-22T00:55:25.650Z,0.00
2018-04-22T00:56:04.659Z,0.00
2018-04-22T00:57:25.649Z,0.00
2018-04-22T00:58:04.617Z,0.00
2018-04-22T00:59:04.624Z,0.00
2018-04-22T01:00:25.658Z,0.00
2018-04-22T01:01:04.632Z,0.00
2018-04-22T01:02:25.629Z,0.00
2018-04-22T01:03:04.644Z,0.00
2018-04-22T01:04:04.658Z,0.00
2018-04-22T01:05:25.644Z,0.00
2018-04-22T01:06:04.598Z,0.00
2018-04-22T01:07:25.608Z,0.00
2018-04-22T01:08:04.596Z,0.00
2018-04-22T01:09:04.606Z,0.00
2018-04-22T01:10:25.634Z,0.00
2018-04-22T01:11:04.628Z,0.00
2018-04-22T01:12:25.597Z,0.00
2018-04-22T01:13:04.597Z,0.00
2018-04-22T01:14:04.591Z,0.00
2018-04-22T01:15:25.590Z,0.00
2018-04-22T01:16:04.596Z,0.00
2018-04-22T01:17:25.599Z,0.00
2018-04-22T01:18:04.580Z,0.00
2018-04-22T01:19:04.580Z,0.00
2018-04-22T01:20:25.576Z,0.00
2018-04-22T01:21:04.587Z,0.00
2018-04-22T01:22:25.571Z,0.00
2018-04-22T01:23:04.561Z,0.00
2018-04-22T01:24:04.554Z,0.00
2018-04-22T01:25:25.558Z,0.00
2018-04-22T01:26:04.569Z,0.00
2018-04-22T01:27:25.583Z,0.00
2018-04-22T01:28:04.527Z,0.00
2018-04-22T01:29:04.545Z,0.00
2018-04-22T01:30:25.559Z,0.00
2018-04-22T01:31:04.529Z,0.00
2018-04-22T01:32:25.594Z,0.00
2018-04-22T01:33:04.509Z,0.00
2018-04-22T01:34:04.508Z,0.00
2018-04-22T01:35:25.535Z,0.00
2018-04-22T01:36:04.511Z,0.00
2018-04-22T01:37:25.519Z,0.00
2018-04-22T01:38:04.534Z,0.00
2018-04-22T01:39:04.524Z,0.00
2018-04-22T01:40:25.525Z,0.00
2018-04-22T01:41:04.501Z,0.00
2018-04-22T01:42:25.499Z,0.00
2018-04-22T01:43:04.515Z,0.00
2018-04-22T01:44:04.504Z,0.00
2018-04-22T01:45:25.460Z,0.00
2018-04-22T01:46:04.498Z,0.00
2018-04-22T01:47:25.480Z,0.00
2018-04-22T01:48:04.510Z,0.00
2018-04-22T01:49:04.481Z,0.00
2018-04-22T01:50:25.509Z,0.00
2018-04-22T01:51:04.462Z,0.00
2018-04-22T01:52:25.482Z,0.00
2018-04-22T01:53:04.457Z,0.00
2018-04-22T01:54:04.446Z,0.00
2018-04-22T01:55:25.452Z,0.00
2018-04-22T01:56:04.446Z,0.00
2018-04-22T01:57:25.445Z,0.00
2018-04-22T01:58:04.446Z,0.00
2018-04-22T01:59:04.439Z,0.00
2018-04-22T02:00:25.451Z,0.00
2018-04-22T02:01:04.426Z,0.00
2018-04-22T02:02:25.435Z,0.00
2018-04-22T02:03:04.470Z,0.00
2018-04-22T02:04:04.424Z,0.00
2018-04-22T02:05:25.430Z,0.00
2018-04-22T02:06:04.420Z,0.00
2018-04-22T02:07:25.443Z,0.00
2018-04-22T02:08:04.395Z,0.00
2018-04-22T02:09:04.423Z,0.00
2018-04-22T02:10:25.384Z,0.00
2018-04-22T02:11:04.376Z,0.00
2018-04-22T02:12:25.431Z,0.00
2018-04-22T02:13:04.370Z,0.00
2018-04-22T02:14:04.383Z,0.00
2018-04-22T02:15:25.393Z,0.00
2018-04-22T02:16:04.391Z,0.00
2018-04-22T02:17:25.368Z,0.00
2018-04-22T02:18:04.899Z,0.00
2018-04-22T02:19:04.370Z,0.00
2018-04-22T02:20:25.368Z,0.00
2018-04-22T02:21:04.388Z,0.00
2018-04-22T02:22:25.350Z,0.00
2018-04-22T02:23:04.345Z,0.00
2018-04-22T02:24:04.344Z,0.00
2018-04-22T02:25:25.358Z,0.00
2018-04-22T02:26:04.350Z,0.00
2018-04-22T02:27:25.374Z,0.00
2018-04-22T02:28:04.345Z,0.00
2018-04-22T02:29:04.333Z,0.00
2018-04-22T02:30:25.354Z,0.00
2018-04-22T02:31:04.317Z,0.00
2018-04-22T02:32:25.349Z,0.00
2018-04-22T02:33:04.325Z,0.00
2018-04-22T02:34:04.331Z,0.00
2018-04-22T02:35:25.312Z,0.00
2018-04-22T02:36:04.337Z,0.00
2018-04-22T02:37:25.322Z,0.00
2018-04-22T02:38:04.329Z,0.00
2018-04-22T02:39:04.358Z,0.00
2018-04-22T02:40:25.297Z,0.00
2018-04-22T02:41:04.338Z,0.00
2018-04-22T02:42:25.306Z,0.00
2018-04-22T02:43:04.307Z,0.00
2018-04-22T02:44:04.287Z,0.00
2018-04-22T02:45:25.307Z,0.00
2018-04-22T02:46:04.316Z,0.00
2018-04-22T02:47:25.298Z,0.00
2018-04-22T02:48:04.286Z,0.00
2018-04-22T02:49:04.302Z,0.00
2018-04-22T02:50:25.260Z,0.00
2018-04-22T02:51:04.264Z,0.00
2018-04-22T02:52:25.265Z,0.00
2018-04-22T02:53:04.273Z,0.00
2018-04-22T02:54:04.265Z,0.00
2018-04-22T02:55:25.238Z,0.00
2018-04-22T02:56:04.268Z,0.00
2018-04-22T02:57:25.275Z,0.00
2018-04-22T02:58:04.246Z,0.00
2018-04-22T02:59:04.242Z,0.00
2018-04-22T03:00:25.256Z,0.00
2018-04-22T03:01:04.219Z,0.00
2018-04-22T03:02:25.235Z,0.00
2018-04-22T03:03:04.242Z,0.00
2018-04-22T03:04:04.230Z,0.00
2018-04-22T03:05:25.270Z,0.00
2018-04-22T03:06:04.242Z,0.00
2018-04-22T03:07:25.217Z,0.00
2018-04-22T03:08:04.233Z,0.00
2018-04-22T03:09:04.161Z,0.00
2018-04-22T03:10:25.211Z,0.00
2018-04-22T03:11:04.200Z,0.00
2018-04-22T03:12:25.241Z,0.00
2018-04-22T03:13:04.190Z,0.00
2018-04-22T03:14:04.188Z,0.00
2018-04-22T03:15:25.189Z,0.00
2018-04-22T03:16:04.180Z,0.00
2018-04-22T03:17:25.166Z,0.00
2018-04-22T03:18:04.168Z,0.00
2018-04-22T03:19:04.164Z,0.00
2018-04-22T03:20:25.172Z,0.00
2018-04-22T03:21:04.160Z,0.00
2018-04-22T03:22:25.155Z,0.00
2018-04-22T03:23:04.171Z,0.00
2018-04-22T03:24:04.136Z,0.00
2018-04-22T03:25:25.165Z,0.00
2018-04-22T03:26:04.198Z,0.00
2018-04-22T03:27:25.143Z,0.00
2018-04-22T03:28:04.127Z,0.00
2018-04-22T03:29:04.158Z,0.00
2018-04-22T03:30:25.138Z,0.00
2018-04-22T03:31:04.115Z,0.00
2018-04-22T03:32:25.141Z,0.00
2018-04-22T03:33:04.114Z,0.00
2018-04-22T03:34:04.104Z,0.00
2018-04-22T03:35:25.127Z,0.00
2018-04-22T03:36:04.141Z,0.00
2018-04-22T03:37:25.102Z,0.00
2018-04-22T03:38:04.122Z,0.00
2018-04-22T03:39:04.082Z,0.00
2018-04-22T03:40:25.121Z,0.00
2018-04-22T03:41:04.097Z,0.00
2018-04-22T03:42:25.102Z,0.00
2018-04-22T03:43:04.101Z,0.00
2018-04-22T03:44:04.103Z,0.00
2018-04-22T03:45:25.111Z,0.00
2018-04-22T03:46:04.103Z,0.00
2018-04-22T03:47:25.132Z,0.00
2018-04-22T03:48:04.083Z,0.00
2018-04-22T03:49:04.087Z,0.00
2018-04-22T03:50:25.099Z,0.00
2018-04-22T03:51:04.072Z,0.00
2018-04-22T03:52:25.093Z,0.00
2018-04-22T03:53:04.077Z,0.00
2018-04-22T03:54:04.130Z,0.00
2018-04-22T03:55:25.073Z,0.00
2018-04-22T03:56:04.034Z,0.00
2018-04-22T03:57:25.053Z,0.00
2018-04-22T03:58:04.025Z,0.00
2018-04-22T03:59:04.060Z,0.00
2018-04-22T04:00:25.035Z,0.00
2018-04-22T04:01:04.073Z,0.00
2018-04-22T04:02:25.037Z,0.00
2018-04-22T04:03:04.025Z,0.00
2018-04-22T04:04:04.034Z,0.00
2018-04-22T04:05:25.029Z,0.00
2018-04-22T04:06:04.003Z,0.00
2018-04-22T04:07:25.054Z,0.00
2018-04-22T04:08:04.009Z,0.00
2018-04-22T04:09:03.994Z,0.00
2018-04-22T04:10:25.029Z,0.00
2018-04-22T04:11:04.011Z,0.00
2018-04-22T04:12:25.019Z,0.00
2018-04-22T04:13:04.003Z,0.00
2018-04-22T04:14:04.026Z,0.00
2018-04-22T04:15:25.003Z,0.00
2018-04-22T04:16:03.993Z,0.00
2018-04-22T04:17:24.990Z,0.00
2018-04-22T04:18:03.995Z,0.00
2018-04-22T04:19:03.964Z,0.00
2018-04-22T04:20:24.986Z,0.00
2018-04-22T04:21:03.982Z,0.00
2018-04-22T04:22:24.982Z,0.00
2018-04-22T04:23:03.972Z,0.00
2018-04-22T04:24:03.983Z,0.00
2018-04-22T04:25:24.968Z,0.00
2018-04-22T04:26:03.955Z,0.00
2018-04-22T04:27:24.960Z,0.00
2018-04-22T04:28:03.952Z,4.00
2018-04-22T04:29:03.945Z,4.00
2018-04-22T04:30:24.959Z,4.00
2018-04-22T04:31:03.954Z,4.00
2018-04-22T04:32:24.948Z,0.00
2018-04-22T04:33:03.929Z,0.00
2018-04-22T04:34:03.933Z,0.00
2018-04-22T04:35:24.911Z,4.00
2018-04-22T04:36:03.971Z,4.00
2018-04-22T04:37:24.922Z,4.00
2018-04-22T04:38:03.909Z,4.00
2018-04-22T04:39:03.902Z,4.00
2018-04-22T04:40:24.923Z,4.00
2018-04-22T04:41:03.883Z,4.00
2018-04-22T04:42:24.902Z,4.00
2018-04-22T04:43:03.919Z,4.00
2018-04-22T04:44:03.872Z,4.00
2018-04-22T04:45:24.893Z,8.00
2018-04-22T04:46:03.875Z,4.00
2018-04-22T04:47:24.899Z,4.00
2018-04-22T04:48:03.880Z,4.00
2018-04-22T04:49:03.853Z,8.00
2018-04-22T04:50:24.883Z,8.00
2018-04-22T04:51:03.864Z,4.00
2018-04-22T04:52:24.863Z,8.00
2018-04-22T04:53:03.899Z,8.00
2018-04-22T04:54:03.863Z,8.00
2018-04-22T04:55:24.864Z,8.00
2018-04-22T04:56:03.872Z,8.00
2018-04-22T04:57:24.850Z,8.00
2018-04-22T04:58:03.848Z,12.00
2018-04-22T04:59:03.838Z,8.00
2018-04-22T05:00:24.888Z,8.00
2018-04-22T05:01:03.839Z,12.00
2018-04-22T05:02:24.851Z,12.00
2018-04-22T05:03:03.835Z,12.00
2018-04-22T05:04:03.862Z,12.00
2018-04-22T05:05:24.845Z,12.00
2018-04-22T05:06:03.835Z,16.00
2018-04-22T05:07:24.843Z,12.00
2018-04-22T05:08:03.823Z,16.00
2018-04-22T05:09:03.826Z,16.00
2018-04-22T05:10:24.835Z,12.00
2018-04-22T05:11:03.815Z,16.00
2018-04-22T05:12:24.790Z,16.00
2018-04-22T05:13:03.779Z,20.00
2018-04-22T05:14:03.808Z,16.00
2018-04-22T05:15:24.820Z,16.00
2018-04-22T05:16:03.765Z,20.00
2018-04-22T05:17:24.810Z,20.00
2018-04-22T05:18:03.841Z,20.00
2018-04-22T05:19:03.798Z,20.00
2018-04-22T05:20:24.795Z,20.00
2018-04-22T05:21:03.800Z,24.00
2018-04-22T05:22:24.767Z,20.00
2018-04-22T05:23:03.761Z,20.00
2018-04-22T05:24:03.786Z,24.00
2018-04-22T05:25:24.761Z,24.00
2018-04-22T05:26:03.791Z,24.00
2018-04-22T05:27:24.796Z,24.00
2018-04-22T05:28:03.756Z,24.00
2018-04-22T05:29:03.730Z,24.00
2018-04-22T05:30:24.763Z,28.00
2018-04-22T05:31:03.755Z,24.00
2018-04-22T05:32:24.741Z,24.00
2018-04-22T05:33:03.735Z,28.00
2018-04-22T05:34:03.721Z,32.00
2018-04-22T05:35:24.759Z,28.00
2018-04-22T05:36:03.745Z,32.00
2018-04-22T05:37:24.734Z,32.00
2018-04-22T05:38:03.731Z,28.00
2018-04-22T05:39:03.698Z,28.00
2018-04-22T05:40:24.730Z,32.00
2018-04-22T05:41:03.725Z,32.00
2018-04-22T05:42:24.745Z,32.00
2018-04-22T05:43:03.690Z,32.00
2018-04-22T05:44:03.702Z,36.00
2018-04-22T05:45:24.737Z,36.00
2018-04-22T05:46:03.714Z,36.00
2018-04-22T05:47:24.684Z,36.00
2018-04-22T05:48:03.664Z,40.00
2018-04-22T05:49:03.720Z,40.00
2018-04-22T05:50:24.681Z,40.00
2018-04-22T05:51:03.719Z,44.00
2018-04-22T05:52:24.685Z,44.00
2018-04-22T05:53:03.704Z,44.00
2018-04-22T05:54:03.676Z,48.00
2018-04-22T05:55:24.665Z,52.00
2018-04-22T05:56:03.716Z,52.00
2018-04-22T05:57:24.647Z,56.00
2018-04-22T05:58:03.661Z,56.00
2018-04-22T05:59:03.715Z,52.00
2018-04-22T06:00:24.670Z,52.00
2018-04-22T06:01:03.652Z,56.00
2018-04-22T06:02:24.686Z,60.00
2018-04-22T06:03:03.653Z,64.00
2018-04-22T06:04:04.155Z,64.00
2018-04-22T06:05:24.644Z,68.00
2018-04-22T06:06:03.642Z,72.00
2018-04-22T06:07:24.642Z,76.00
2018-04-22T06:08:03.651Z,76.00
2018-04-22T06:09:03.647Z,76.00
2018-04-22T06:10:24.657Z,80.00
2018-04-22T06:11:03.606Z,76.00
2018-04-22T06:12:24.652Z,84.00
2018-04-22T06:13:03.640Z,80.00
2018-04-22T06:14:03.602Z,92.00
2018-04-22T06:15:24.637Z,100.00
2018-04-22T06:16:03.617Z,112.00
2018-04-22T06:17:24.706Z,112.00
2018-04-22T06:18:03.584Z,112.00
2018-04-22T06:19:03.600Z,116.00
2018-04-22T06:20:24.605Z,120.00
2018-04-22T06:21:03.581Z,128.00
2018-04-22T06:22:24.581Z,132.00
2018-04-22T06:23:03.615Z,144.00
2018-04-22T06:24:03.561Z,160.00
2018-04-22T06:25:24.574Z,148.00
2018-04-22T06:26:03.570Z,168.00
2018-04-22T06:27:24.584Z,168.00
2018-04-22T06:28:03.561Z,176.00
2018-04-22T06:29:03.569Z,188.00
2018-04-22T06:30:24.593Z,196.00
2018-04-22T06:31:03.568Z,208.00
2018-04-22T06:32:24.585Z,228.00
2018-04-22T06:33:03.567Z,240.00
2018-04-22T06:34:03.541Z,240.00
2018-04-22T06:35:24.591Z,252.00
2018-04-22T06:36:03.569Z,256.00
2018-04-22T06:37:24.544Z,260.00
2018-04-22T06:38:03.540Z,260.00
2018-04-22T06:39:03.551Z,264.00
2018-04-22T06:40:24.551Z,264.00
2018-04-22T06:41:04.169Z,268.00
2018-04-22T06:42:24.539Z,272.00
2018-04-22T06:43:03.543Z,268.00
2018-04-22T06:44:03.542Z,268.00
2018-04-22T06:45:24.540Z,264.00
2018-04-22T06:46:03.560Z,260.00
2018-04-22T06:47:24.525Z,260.00
2018-04-22T06:48:04.460Z,248.00
2018-04-22T06:49:03.488Z,252.00
2018-04-22T06:50:24.498Z,252.00
2018-04-22T06:51:03.515Z,212.00
2018-04-22T06:52:24.498Z,160.00
2018-04-22T06:53:03.493Z,192.00
2018-04-22T06:54:03.492Z,224.00
2018-04-22T06:55:24.506Z,244.00
2018-04-22T06:56:03.481Z,240.00
2018-04-22T06:57:24.486Z,236.00
2018-04-22T06:58:03.470Z,228.00
2018-04-22T06:59:03.464Z,224.00
2018-04-22T07:00:24.766Z,248.00
2018-04-22T07:01:03.473Z,248.00
2018-04-22T07:02:24.470Z,244.00
2018-04-22T07:03:03.461Z,244.00
2018-04-22T07:04:03.466Z,220.00
2018-04-22T07:05:24.524Z,216.00
2018-04-22T07:06:03.451Z,224.00
2018-04-22T07:07:24.453Z,224.00
2018-04-22T07:08:03.451Z,204.00
2018-04-22T07:09:03.457Z,204.00
2018-04-22T07:10:24.452Z,200.00
2018-04-22T07:11:03.409Z,172.00
2018-04-22T07:12:24.443Z,216.00
2018-04-22T07:13:03.417Z,236.00
2018-04-22T07:14:03.441Z,236.00
2018-04-22T07:15:24.464Z,236.00
2018-04-22T07:16:03.416Z,228.00
2018-04-22T07:17:24.423Z,240.00
2018-04-22T07:18:03.437Z,244.00
2018-04-22T07:19:03.418Z,252.00
2018-04-22T07:20:24.484Z,264.00
2018-04-22T07:21:03.416Z,272.00
2018-04-22T07:22:24.434Z,268.00
2018-04-22T07:23:03.414Z,268.00
2018-04-22T07:24:03.432Z,272.00
2018-04-22T07:25:24.408Z,268.00
2018-04-22T07:26:03.396Z,272.00
2018-04-22T07:27:24.391Z,276.00
2018-04-22T07:28:03.449Z,288.00
2018-04-22T07:29:03.386Z,276.00
2018-04-22T07:30:24.367Z,280.00
2018-04-22T07:31:03.383Z,276.00
2018-04-22T07:32:24.420Z,268.00
2018-04-22T07:33:03.363Z,264.00
2018-04-22T07:34:03.383Z,272.00
2018-04-22T07:35:24.373Z,272.00
2018-04-22T07:36:03.399Z,268.00
2018-04-22T07:37:24.414Z,264.00
2018-04-22T07:38:03.371Z,280.00
2018-04-22T07:39:03.331Z,252.00
2018-04-22T07:40:24.371Z,284.00
2018-04-22T07:41:04.041Z,268.00
2018-04-22T07:42:24.369Z,244.00
2018-04-22T07:43:03.337Z,240.00
2018-04-22T07:44:03.401Z,280.00
2018-04-22T07:45:24.357Z,264.00
2018-04-22T07:46:03.341Z,240.00
2018-04-22T07:47:24.363Z,236.00
2018-04-22T07:48:03.339Z,280.00
2018-04-22T07:49:03.355Z,300.00
2018-04-22T07:50:24.421Z,232.00
2018-04-22T07:51:03.303Z,248.00
2018-04-22T07:52:24.324Z,284.00
2018-04-22T07:53:03.320Z,284.00
2018-04-22T07:54:03.323Z,288.00
2018-04-22T07:55:24.338Z,288.00
2018-04-22T07:56:03.317Z,304.00
2018-04-22T07:57:24.323Z,300.00
2018-04-22T07:58:03.298Z,296.00
2018-04-22T07:59:03.327Z,296.00
2018-04-22T08:00:24.309Z,292.00
2018-04-22T08:01:03.316Z,304.00
2018-04-22T08:02:24.305Z,296.00
2018-04-22T08:03:03.277Z,296.00
2018-04-22T08:04:03.307Z,308.00
2018-04-22T08:05:24.327Z,304.00
2018-04-22T08:06:03.296Z,304.00
2018-04-22T08:07:24.327Z,292.00
2018-04-22T08:08:03.277Z,288.00
2018-04-22T08:09:03.303Z,260.00
2018-04-22T08:10:24.283Z,260.00
2018-04-22T08:11:03.288Z,272.00
2018-04-22T08:12:24.274Z,276.00
2018-04-22T08:13:03.244Z,256.00
2018-04-22T08:14:03.251Z,260.00
2018-04-22T08:15:24.229Z,280.00
2018-04-22T08:16:03.293Z,280.00
2018-04-22T08:17:24.303Z,272.00
2018-04-22T08:18:03.256Z,268.00
2018-04-22T08:19:03.987Z,260.00
2018-04-22T08:20:24.265Z,276.00
2018-04-22T08:21:03.253Z,272.00
2018-04-22T08:22:24.250Z,272.00
2018-04-22T08:23:03.259Z,260.00
2018-04-22T08:24:03.230Z,240.00
2018-04-22T08:25:24.263Z,248.00
2018-04-22T08:26:03.236Z,228.00
2018-04-22T08:27:24.202Z,248.00
2018-04-22T08:28:03.269Z,260.00
2018-04-22T08:29:03.243Z,256.00
2018-04-22T08:30:24.195Z,260.00
2018-04-22T08:31:03.259Z,256.00
2018-04-22T08:32:24.249Z,256.00
2018-04-22T08:33:03.223Z,252.00
2018-04-22T08:34:04.085Z,260.00
2018-04-22T08:35:24.192Z,244.00
2018-04-22T08:36:03.204Z,252.00
2018-04-22T08:37:24.207Z,248.00
2018-04-22T08:38:03.714Z,260.00
2018-04-22T08:39:03.217Z,260.00
2018-04-22T08:40:24.224Z,256.00
2018-04-22T08:41:03.165Z,240.00
2018-04-22T08:42:24.944Z,256.00
2018-04-22T08:43:03.226Z,240.00
2018-04-22T08:44:03.953Z,236.00
2018-04-22T08:45:24.948Z,252.00
2018-04-22T08:46:03.202Z,244.00
2018-04-22T08:47:24.167Z,244.00
2018-04-22T08:48:03.152Z,244.00
2018-04-22T08:49:03.153Z,244.00
2018-04-22T08:50:24.214Z,236.00
2018-04-22T08:51:03.181Z,236.00
2018-04-22T08:52:24.154Z,236.00
2018-04-22T08:53:03.177Z,220.00
2018-04-22T08:54:03.160Z,212.00
2018-04-22T08:55:24.147Z,196.00
2018-04-22T08:56:03.136Z,208.00
2018-04-22T08:57:24.164Z,220.00
2018-04-22T08:58:03.133Z,212.00
2018-04-22T08:59:03.161Z,208.00
2018-04-22T09:00:24.198Z,216.00
2018-04-22T09:01:03.162Z,216.00
2018-04-22T09:02:24.157Z,208.00
2018-04-22T09:03:03.155Z,188.00
2018-04-22T09:04:03.137Z,168.00
2018-04-22T09:05:24.185Z,168.00
2018-04-22T09:06:03.153Z,184.00
2018-04-22T09:07:24.148Z,196.00
2018-04-22T09:08:03.117Z,216.00
2018-04-22T09:09:03.174Z,220.00
2018-04-22T09:10:24.098Z,224.00
2018-04-22T09:11:03.139Z,220.00
2018-04-22T09:12:24.141Z,224.00
2018-04-22T09:13:03.099Z,224.00
2018-04-22T09:14:03.119Z,220.00
2018-04-22T09:15:24.078Z,216.00
2018-04-22T09:16:03.161Z,220.00
2018-04-22T09:17:24.120Z,220.00
2018-04-22T09:18:03.092Z,212.00
2018-04-22T09:19:03.150Z,216.00
2018-04-22T09:20:24.060Z,212.00
2018-04-22T09:21:03.082Z,204.00
2018-04-22T09:22:24.058Z,196.00
2018-04-22T09:23:03.081Z,200.00
2018-04-22T09:24:03.095Z,208.00
2018-04-22T09:25:24.091Z,208.00
2018-04-22T09:26:03.084Z,204.00
2018-04-22T09:27:24.066Z,204.00
2018-04-22T09:28:03.086Z,204.00
2018-04-22T09:29:03.125Z,204.00
2018-04-22T09:30:24.089Z,200.00
2018-04-22T09:31:03.090Z,188.00
2018-04-22T09:32:24.090Z,192.00
2018-04-22T09:33:03.072Z,192.00
2018-04-22T09:34:03.087Z,196.00
2018-04-22T09:35:24.089Z,196.00
2018-04-22T09:36:03.040Z,188.00
2018-04-22T09:37:24.072Z,180.00
2018-04-22T09:38:03.081Z,172.00
2018-04-22T09:39:03.089Z,176.00
2018-04-22T09:40:24.014Z,168.00
2018-04-22T09:41:03.017Z,156.00
2018-04-22T09:42:24.014Z,148.00
2018-04-22T09:43:03.036Z,156.00
2018-04-22T09:44:03.034Z,156.00
2018-04-22T09:45:24.024Z,160.00
2018-04-22T09:46:03.013Z,172.00
2018-04-22T09:47:24.025Z,168.00
2018-04-22T09:48:03.027Z,172.00
2018-04-22T09:49:03.041Z,176.00
2018-04-22T09:50:24.010Z,180.00
2018-04-22T09:51:03.084Z,184.00
2018-04-22T09:52:24.078Z,180.00
2018-04-22T09:53:03.062Z,152.00
2018-04-22T09:54:03.077Z,152.00
2018-04-22T09:55:24.033Z,168.00
2018-04-22T09:56:03.000Z,172.00
2018-04-22T09:57:23.998Z,172.00
2018-04-22T09:58:03.001Z,168.00
2018-04-22T09:59:02.990Z,172.00
2018-04-22T10:00:24.010Z,172.00
2018-04-22T10:01:02.963Z,172.00
2018-04-22T10:02:24.050Z,172.00
2018-04-22T10:03:02.960Z,168.00
2018-04-22T10:04:03.017Z,164.00
2018-04-22T10:05:23.964Z,160.00
2018-04-22T10:06:02.970Z,156.00
2018-04-22T10:07:23.997Z,156.00
2018-04-22T10:08:02.956Z,152.00
2018-04-22T10:09:03.019Z,148.00
2018-04-22T10:10:23.975Z,148.00
2018-04-22T10:11:03.000Z,144.00
2018-04-22T10:12:23.929Z,140.00
2018-04-22T10:13:02.945Z,132.00
2018-04-22T10:14:02.948Z,124.00
2018-04-22T10:15:23.964Z,132.00
2018-04-22T10:16:02.935Z,132.00
2018-04-22T10:17:23.937Z,136.00
2018-04-22T10:18:02.908Z,140.00
2018-04-22T10:19:02.936Z,148.00
2018-04-22T10:20:23.962Z,140.00
2018-04-22T10:21:02.926Z,140.00
2018-04-22T10:22:23.966Z,148.00
2018-04-22T10:23:02.901Z,156.00
2018-04-22T10:24:02.935Z,148.00
2018-04-22T10:25:23.900Z,136.00
2018-04-22T10:26:02.891Z,132.00
2018-04-22T10:27:23.935Z,120.00
2018-04-22T10:28:02.943Z,112.00
2018-04-22T10:29:02.938Z,116.00
2018-04-22T10:30:23.910Z,104.00
2018-04-22T10:31:02.943Z,124.00
2018-04-22T10:32:23.871Z,124.00
2018-04-22T10:33:02.893Z,120.00
2018-04-22T10:34:02.964Z,116.00
2018-04-22T10:35:23.883Z,120.00
2018-04-22T10:36:02.858Z,120.00
2018-04-22T10:37:23.887Z,140.00
2018-04-22T10:38:02.860Z,140.00
2018-04-22T10:39:02.879Z,136.00
2018-04-22T10:40:23.884Z,128.00
2018-04-22T10:41:02.863Z,140.00
2018-04-22T10:42:23.867Z,140.00
2018-04-22T10:43:02.913Z,148.00
2018-04-22T10:44:02.892Z,120.00
2018-04-22T10:45:23.840Z,104.00
2018-04-22T10:46:02.896Z,108.00
2018-04-22T10:47:23.829Z,128.00
2018-04-22T10:48:02.846Z,124.00
2018-04-22T10:49:02.860Z,120.00
2018-04-22T10:50:23.841Z,124.00
2018-04-22T10:51:02.869Z,128.00
2018-04-22T10:52:23.906Z,116.00
2018-04-22T10:53:02.811Z,120.00
2018-04-22T10:54:02.817Z,116.00
2018-04-22T10:55:23.822Z,120.00
2018-04-22T10:56:02.834Z,120.00
2018-04-22T10:57:23.866Z,120.00
2018-04-22T10:58:02.855Z,132.00
2018-04-22T10:59:02.799Z,144.00
2018-04-22T11:00:23.817Z,128.00
2018-04-22T11:01:02.825Z,132.00
2018-04-22T11:02:23.825Z,148.00
2018-04-22T11:03:02.809Z,148.00
2018-04-22T11:04:02.833Z,144.00
2018-04-22T11:05:23.794Z,144.00
2018-04-22T11:06:02.812Z,144.00
2018-04-22T11:07:23.824Z,148.00
2018-04-22T11:08:02.782Z,144.00
2018-04-22T11:09:02.758Z,144.00
2018-04-22T11:10:23.835Z,144.00
2018-04-22T11:11:02.790Z,140.00
2018-04-22T11:12:23.830Z,140.00
2018-04-22T11:13:02.805Z,136.00
2018-04-22T11:14:02.762Z,136.00
2018-04-22T11:15:23.826Z,136.00
2018-04-22T11:16:02.787Z,136.00
2018-04-22T11:17:23.772Z,132.00
2018-04-22T11:18:02.844Z,128.00
2018-04-22T11:19:02.754Z,132.00
2018-04-22T11:20:23.781Z,128.00
2018-04-22T11:21:02.806Z,132.00
2018-04-22T11:22:23.751Z,132.00
2018-04-22T11:23:02.770Z,128.00
2018-04-22T11:24:02.807Z,128.00
2018-04-22T11:25:23.764Z,128.00
2018-04-22T11:26:02.723Z,124.00
2018-04-22T11:27:23.765Z,128.00
2018-04-22T11:28:02.758Z,124.00
2018-04-22T11:29:02.775Z,124.00
2018-04-22T11:30:23.798Z,124.00
2018-04-22T11:31:02.756Z,120.00
2018-04-22T11:32:23.763Z,120.00
2018-04-22T11:33:03.554Z,128.00
2018-04-22T11:34:02.707Z,124.00
2018-04-22T11:35:24.337Z,124.00
2018-04-22T11:36:02.721Z,124.00
2018-04-22T11:37:23.744Z,128.00
2018-04-22T11:38:02.808Z,124.00
2018-04-22T11:39:02.761Z,124.00
2018-04-22T11:40:23.750Z,128.00
2018-04-22T11:41:02.703Z,120.00
2018-04-22T11:42:24.424Z,124.00
2018-04-22T11:43:02.763Z,120.00
2018-04-22T11:44:03.504Z,128.00
2018-04-22T11:45:24.707Z,120.00
2018-04-22T11:46:02.696Z,120.00
2018-04-22T11:47:23.731Z,116.00
2018-04-22T11:48:03.277Z,124.00
2018-04-22T11:49:02.699Z,116.00
2018-04-22T11:50:23.677Z,116.00
2018-04-22T11:51:03.621Z,120.00
2018-04-22T11:52:23.662Z,116.00
2018-04-22T11:53:02.723Z,120.00
2018-04-22T11:54:02.676Z,124.00
2018-04-22T11:55:23.665Z,120.00
2018-04-22T11:56:02.633Z,132.00
2018-04-22T11:57:23.681Z,136.00
2018-04-22T11:58:03.574Z,124.00
2018-04-22T11:59:02.678Z,124.00
2018-04-22T12:00:24.339Z,116.00
2018-04-22T12:01:02.685Z,112.00
2018-04-22T12:02:23.746Z,116.00
2018-04-22T12:03:02.654Z,116.00
2018-04-22T12:04:02.702Z,112.00
2018-04-22T12:05:23.677Z,116.00
2018-04-22T12:06:02.669Z,112.00
2018-04-22T12:07:23.678Z,116.00
2018-04-22T12:08:02.636Z,112.00
2018-04-22T12:09:02.694Z,96.00
2018-04-22T12:10:24.523Z,108.00
2018-04-22T12:11:02.616Z,112.00
2018-04-22T12:12:23.717Z,112.00
2018-04-22T12:13:02.655Z,104.00
2018-04-22T12:14:02.657Z,112.00
2018-04-22T12:15:23.613Z,112.00
2018-04-22T12:16:02.603Z,112.00
2018-04-22T12:17:23.651Z,108.00
2018-04-22T12:18:02.632Z,112.00
2018-04-22T12:19:02.624Z,108.00
2018-04-22T12:20:23.604Z,108.00
2018-04-22T12:21:02.600Z,104.00
2018-04-22T12:22:23.583Z,104.00
2018-04-22T12:23:02.615Z,108.00
2018-04-22T12:24:02.624Z,108.00
2018-04-22T12:25:23.573Z,108.00
2018-04-22T12:26:02.582Z,108.00
2018-04-22T12:27:23.557Z,104.00
2018-04-22T12:28:02.577Z,104.00
2018-04-22T12:29:02.633Z,96.00
2018-04-22T12:30:23.629Z,92.00
2018-04-22T12:31:02.619Z,44.00
2018-04-22T12:32:23.588Z,40.00
2018-04-22T12:33:02.556Z,32.00
2018-04-22T12:34:02.572Z,32.00
2018-04-22T12:35:23.570Z,28.00
2018-04-22T12:36:02.549Z,28.00
2018-04-22T12:37:23.585Z,32.00
2018-04-22T12:38:02.564Z,28.00
2018-04-22T12:39:02.547Z,28.00
2018-04-22T12:40:23.544Z,32.00
2018-04-22T12:41:02.533Z,28.00
2018-04-22T12:42:23.549Z,24.00
2018-04-22T12:43:02.544Z,24.00
2018-04-22T12:44:02.545Z,24.00
2018-04-22T12:45:23.544Z,24.00
2018-04-22T12:46:02.615Z,20.00
2018-04-22T12:47:23.542Z,20.00
2018-04-22T12:48:02.479Z,20.00
2018-04-22T12:49:02.570Z,16.00
2018-04-22T12:50:23.579Z,12.00